»·PEaware :: N2997P KSMX-KBFL

N2997P :: KSMX-KBFL

FLIGHT INFORMATION

Flight Status: Arrived
Operator: Privately registered:
United States
More flights under this callsign
Pilot: John D. (31622)
Aircraft: BEECH AIRCRAFT BARON
(BE58)
More flights by this aircraft type
Origin: KSMX Santa Maria Pub/Capt Hancock
United States
Destination: KBFL Meadows
United States
More flights between these airports :: More routes between these airports
Route: +
File this flight plan on PilotEdge
Remarks:
Altitude:
(Current/Filed)
7,000ft
Speed:
(Current/Filed)
140kts
Departed: 13-Oct-20 05:17 PM
Arrived: 13-Oct-20 05:50 PM
Distance/Time
Traveled:
76nm/0:33
Distance/Time
To Go:
Arrived

Flight Plot

Page will automatically refresh every two minutes.


Map Options




Map Legend


Flown Route
Filed Route
Departure Airport
Arrival Airport
Navaid (VOR, NDB)
Fix

Horizontal Profiles

Position Reports

Time Latitude Longitude Heading Altitude Ground
Speed
13-Oct-20 17:02 34.895983 -120.445060 314 265ft 0kts
13-Oct-20 17:03 34.895983 -120.445060 314 265ft 0kts
13-Oct-20 17:04 34.895983 -120.445060 314 265ft 0kts
13-Oct-20 17:05 34.895983 -120.445060 314 265ft 0kts
13-Oct-20 17:06 34.895983 -120.445060 314 265ft 0kts
13-Oct-20 17:07 34.895983 -120.445060 314 265ft 0kts
13-Oct-20 17:08 34.895983 -120.445060 314 265ft 0kts
13-Oct-20 17:09 34.895983 -120.445060 314 265ft 0kts
13-Oct-20 17:10 34.895983 -120.445060 314 265ft 0kts
13-Oct-20 17:11 34.895983 -120.445060 314 265ft 0kts
13-Oct-20 17:12 34.895983 -120.445060 314 265ft 0kts
13-Oct-20 17:13 34.895761 -120.445535 152 265ft 13kts
13-Oct-20 17:14 34.893514 -120.445195 184 265ft 0kts
13-Oct-20 17:15 34.893515 -120.445195 184 265ft 0kts
13-Oct-20 17:15 34.893515 -120.445195 184 265ft 0kts
13-Oct-20 17:17 34.894256 -120.447663 314 265ft 64kts
13-Oct-20 17:17 34.914827 -120.467091 353 1158ft 112kts
13-Oct-20 17:19 34.944481 -120.445573 52 2859ft 123kts
13-Oct-20 17:19 34.957476 -120.410805 57 3722ft 129kts
13-Oct-20 17:20 34.971405 -120.365205 66 4674ft 133kts
13-Oct-20 17:21 34.984649 -120.319925 66 5593ft 132kts
13-Oct-20 17:22 34.999453 -120.271552 64 6794ft 141kts
13-Oct-20 17:23 35.018392 -120.214907 64 7050ft 175kts
13-Oct-20 17:24 35.038699 -120.155463 64 6986ft 161kts
13-Oct-20 17:25 35.058212 -120.098655 64 6982ft 161kts
13-Oct-20 17:26 35.078365 -120.040520 64 6981ft 162kts
13-Oct-20 17:27 35.098118 -119.983860 64 6981ft 162kts
13-Oct-20 17:28 35.116695 -119.930590 64 6983ft 163kts
13-Oct-20 17:29 35.134984 -119.878233 64 6982ft 163kts
13-Oct-20 17:30 35.153054 -119.826750 64 6981ft 163kts
13-Oct-20 17:31 35.171202 -119.775469 64 6980ft 163kts
13-Oct-20 17:32 35.189647 -119.723747 64 6944ft 164kts
13-Oct-20 17:33 35.207673 -119.672731 63 6961ft 162kts
13-Oct-20 17:34 35.225337 -119.622108 63 6978ft 161kts
13-Oct-20 17:35 35.242858 -119.571431 63 6993ft 161kts
13-Oct-20 17:36 35.260192 -119.520974 63 7005ft 160kts
13-Oct-20 17:37 35.277476 -119.470518 63 7007ft 160kts
13-Oct-20 17:38 35.294792 -119.419982 63 7007ft 160kts
13-Oct-20 17:39 35.312112 -119.369443 63 7007ft 161kts
13-Oct-20 17:40 35.329423 -119.318950 64 7005ft 160kts
13-Oct-20 17:41 35.346759 -119.268398 64 7006ft 160kts
13-Oct-20 17:42 35.365623 -119.216961 59 6492ft 164kts
13-Oct-20 17:43 35.384220 -119.169318 60 4531ft 136kts
13-Oct-20 17:44 35.399548 -119.134075 60 3198ft 109kts
13-Oct-20 17:45 35.411286 -119.100714 64 1880ft 106kts
13-Oct-20 17:46 35.408784 -119.065380 127 1134ft 109kts
13-Oct-20 17:47 35.398229 -119.032515 59 1087ft 112kts
13-Oct-20 17:48 35.416573 -119.039275 317 878ft 92kts
13-Oct-20 17:49 35.431636 -119.057157 312 479ft 35kts
13-Oct-20 17:50 35.434225 -119.061322 311 482ft 0kts
13-Oct-20 17:51 35.437210 -119.064972 315 487ft 28kts
13-Oct-20 17:52 35.438501 -119.065697 36 492ft 12kts
13-Oct-20 17:53 35.439092 -119.060264 134 498ft 31kts
13-Oct-20 17:54 35.434414 -119.054628 137 493ft 22kts
13-Oct-20 17:55 35.431502 -119.049328 107 497ft 16kts
13-Oct-20 17:56 35.430592 -119.047697 138 496ft 0kts
13-Oct-20 17:57 35.430592 -119.047697 138 496ft 0kts
13-Oct-20 17:58 35.430592 -119.047697 138 496ft 0kts
13-Oct-20 17:59 35.430592 -119.047697 138 496ft 0kts

Navigation Log

Ident Type
Flight plan parsing failed, navigation log unavailable